sensor_id;sensor_type;location;lat;lon;timestamp;P1;durP1;ratioP1;P2;durP2;ratioP2
40058;SDS011;25763;49.972;8.568;2024-02-04T00:01:46;44.97;;;42.67;;
40058;SDS011;25763;49.972;8.568;2024-02-04T00:04:12;47.05;;;44.65;;
40058;SDS011;25763;49.972;8.568;2024-02-04T00:06:37;44.85;;;42.55;;
40058;SDS011;25763;49.972;8.568;2024-02-04T00:09:02;48.03;;;45.63;;
40058;SDS011;25763;49.972;8.568;2024-02-04T00:11:29;46.85;;;44.47;;
40058;SDS011;25763;49.972;8.568;2024-02-04T00:13:55;47.08;;;44.67;;
40058;SDS011;25763;49.972;8.568;2024-02-04T00:16:20;48.17;;;45.75;;
40058;SDS011;25763;49.972;8.568;2024-02-04T00:18:45;45.53;;;43.22;;
40058;SDS011;25763;49.972;8.568;2024-02-04T00:21:10;48.80;;;46.33;;
40058;SDS011;25763;49.972;8.568;2024-02-04T00:23:36;45.53;;;43.15;;
40058;SDS011;25763;49.972;8.568;2024-02-04T00:26:01;46.60;;;44.22;;
40058;SDS011;25763;49.972;8.568;2024-02-04T00:28:27;44.67;;;42.40;;
40058;SDS011;25763;49.972;8.568;2024-02-04T00:30:53;50.95;;;48.35;;
40058;SDS011;25763;49.972;8.568;2024-02-04T00:33:20;49.22;;;46.72;;
40058;SDS011;25763;49.972;8.568;2024-02-04T00:35:46;45.00;;;42.70;;
40058;SDS011;25763;49.972;8.568;2024-02-04T00:38:12;50.42;;;47.88;;
40058;SDS011;25763;49.972;8.568;2024-02-04T00:40:37;51.75;;;49.15;;
40058;SDS011;25763;49.972;8.568;2024-02-04T00:43:02;56.28;;;53.40;;
40058;SDS011;25763;49.972;8.568;2024-02-04T00:45:28;50.97;;;48.40;;
40058;SDS011;25763;49.972;8.568;2024-02-04T00:47:53;53.25;;;50.55;;
40058;SDS011;25763;49.972;8.568;2024-02-04T00:50:19;51.80;;;49.20;;
40058;SDS011;25763;49.972;8.568;2024-02-04T00:52:44;51.53;;;48.92;;
40058;SDS011;25763;49.972;8.568;2024-02-04T00:55:09;51.15;;;48.55;;
40058;SDS011;25763;49.972;8.568;2024-02-04T00:57:35;53.88;;;51.15;;
40058;SDS011;25763;49.972;8.568;2024-02-04T01:00:00;52.08;;;49.47;;
40058;SDS011;25763;49.972;8.568;2024-02-04T01:02:25;51.17;;;48.58;;
40058;SDS011;25763;49.972;8.568;2024-02-04T01:04:51;51.78;;;49.17;;
40058;SDS011;25763;49.972;8.568;2024-02-04T01:07:16;52.58;;;49.90;;
40058;SDS011;25763;49.972;8.568;2024-02-04T01:09:42;53.00;;;50.22;;
40058;SDS011;25763;49.972;8.568;2024-02-04T01:12:07;50.08;;;47.47;;
40058;SDS011;25763;49.972;8.568;2024-02-04T01:14:33;48.35;;;45.95;;
40058;SDS011;25763;49.972;8.568;2024-02-04T01:16:59;49.55;;;47.05;;
40058;SDS011;25763;49.972;8.568;2024-02-04T01:19:24;49.58;;;47.08;;
40058;SDS011;25763;49.972;8.568;2024-02-04T01:21:49;51.33;;;48.75;;
40058;SDS011;25763;49.972;8.568;2024-02-04T01:24:15;50.20;;;47.70;;
40058;SDS011;25763;49.972;8.568;2024-02-04T01:26:40;49.63;;;47.13;;
40058;SDS011;25763;49.972;8.568;2024-02-04T01:29:05;48.60;;;46.13;;
40058;SDS011;25763;49.972;8.568;2024-02-04T01:31:31;49.65;;;47.15;;
40058;SDS011;25763;49.972;8.568;2024-02-04T01:33:56;49.10;;;46.60;;
40058;SDS011;25763;49.972;8.568;2024-02-04T01:36:21;51.95;;;49.30;;
40058;SDS011;25763;49.972;8.568;2024-02-04T01:38:47;49.92;;;47.42;;
40058;SDS011;25763;49.972;8.568;2024-02-04T01:41:12;47.20;;;44.75;;
40058;SDS011;25763;49.972;8.568;2024-02-04T01:43:37;46.38;;;44.00;;
40058;SDS011;25763;49.972;8.568;2024-02-04T01:46:03;45.33;;;43.03;;
40058;SDS011;25763;49.972;8.568;2024-02-04T01:48:28;48.25;;;45.78;;
40058;SDS011;25763;49.972;8.568;2024-02-04T01:50:54;53.03;;;50.28;;
40058;SDS011;25763;49.972;8.568;2024-02-04T01:53:24;46.78;;;44.40;;
40058;SDS011;25763;49.972;8.568;2024-02-04T01:55:51;50.03;;;47.50;;
40058;SDS011;25763;49.972;8.568;2024-02-04T01:58:17;52.35;;;49.70;;
40058;SDS011;25763;49.972;8.568;2024-02-04T02:00:42;68.40;;;64.97;;
40058;SDS011;25763;49.972;8.568;2024-02-04T02:03:08;83.55;;;79.38;;
40058;SDS011;25763;49.972;8.568;2024-02-04T02:05:36;100.35;;;94.28;;
40058;SDS011;25763;49.972;8.568;2024-02-04T02:08:02;112.20;;;106.53;;
40058;SDS011;25763;49.972;8.568;2024-02-04T02:10:28;127.80;;;121.38;;
40058;SDS011;25763;49.972;8.568;2024-02-04T02:12:58;142.15;;;135.00;;
40058;SDS011;25763;49.972;8.568;2024-02-04T02:15:30;144.45;;;137.18;;
40058;SDS011;25763;49.972;8.568;2024-02-04T02:18:02;145.30;;;137.95;;
40058;SDS011;25763;49.972;8.568;2024-02-04T02:21:06;163.02;;;154.88;;
40058;SDS011;25763;49.972;8.568;2024-02-04T02:23:50;164.50;;;156.20;;
40058;SDS011;25763;49.972;8.568;2024-02-04T02:26:21;191.80;;;182.13;;
40058;SDS011;25763;49.972;8.568;2024-02-04T02:28:46;206.10;;;195.73;;
40058;SDS011;25763;49.972;8.568;2024-02-04T02:31:12;207.93;;;197.43;;
40058;SDS011;25763;49.972;8.568;2024-02-04T02:33:37;208.98;;;198.52;;
40058;SDS011;25763;49.972;8.568;2024-02-04T02:36:03;212.80;;;202.18;;
40058;SDS011;25763;49.972;8.568;2024-02-04T02:41:11;199.85;;;189.90;;
40058;SDS011;25763;49.972;8.568;2024-02-04T02:43:39;214.00;;;203.27;;
40058;SDS011;25763;49.972;8.568;2024-02-04T02:46:06;207.13;;;196.80;;
40058;SDS011;25763;49.972;8.568;2024-02-04T02:48:32;203.45;;;193.32;;
40058;SDS011;25763;49.972;8.568;2024-02-04T02:50:58;216.60;;;205.82;;
40058;SDS011;25763;49.972;8.568;2024-02-04T02:53:23;215.75;;;205.05;;
40058;SDS011;25763;49.972;8.568;2024-02-04T02:55:49;217.63;;;206.80;;
40058;SDS011;25763;49.972;8.568;2024-02-04T02:58:14;232.65;;;221.13;;
40058;SDS011;25763;49.972;8.568;2024-02-04T03:00:39;228.55;;;217.20;;
40058;SDS011;25763;49.972;8.568;2024-02-04T03:03:05;226.00;;;214.75;;
40058;SDS011;25763;49.972;8.568;2024-02-04T03:05:30;233.13;;;221.60;;
40058;SDS011;25763;49.972;8.568;2024-02-04T03:07:56;237.13;;;225.35;;
40058;SDS011;25763;49.972;8.568;2024-02-04T03:10:22;225.32;;;214.20;;
40058;SDS011;25763;49.972;8.568;2024-02-04T03:12:47;222.60;;;211.60;;
40058;SDS011;25763;49.972;8.568;2024-02-04T03:15:12;237.10;;;225.38;;
40058;SDS011;25763;49.972;8.568;2024-02-04T03:17:38;232.35;;;220.82;;
40058;SDS011;25763;49.972;8.568;2024-02-04T03:20:03;235.20;;;223.57;;
40058;SDS011;25763;49.972;8.568;2024-02-04T03:22:29;244.38;;;232.32;;
40058;SDS011;25763;49.972;8.568;2024-02-04T03:24:55;240.85;;;228.93;;
40058;SDS011;25763;49.972;8.568;2024-02-04T03:27:20;243.52;;;231.52;;
40058;SDS011;25763;49.972;8.568;2024-02-04T03:29:45;250.02;;;237.63;;
40058;SDS011;25763;49.972;8.568;2024-02-04T03:32:11;257.55;;;244.82;;
40058;SDS011;25763;49.972;8.568;2024-02-04T03:34:36;250.80;;;238.48;;
40058;SDS011;25763;49.972;8.568;2024-02-04T03:37:02;247.57;;;235.30;;
40058;SDS011;25763;49.972;8.568;2024-02-04T03:39:27;256.02;;;243.38;;
40058;SDS011;25763;49.972;8.568;2024-02-04T03:41:53;245.98;;;233.77;;
40058;SDS011;25763;49.972;8.568;2024-02-04T03:44:18;254.68;;;241.98;;
40058;SDS011;25763;49.972;8.568;2024-02-04T03:46:43;245.20;;;233.07;;
40058;SDS011;25763;49.972;8.568;2024-02-04T03:49:13;232.70;;;221.15;;
40058;SDS011;25763;49.972;8.568;2024-02-04T03:51:39;224.35;;;213.25;;
40058;SDS011;25763;49.972;8.568;2024-02-04T03:54:04;228.57;;;217.30;;
40058;SDS011;25763;49.972;8.568;2024-02-04T03:56:29;219.77;;;208.85;;
40058;SDS011;25763;49.972;8.568;2024-02-04T03:58:55;219.45;;;208.57;;
40058;SDS011;25763;49.972;8.568;2024-02-04T04:01:21;221.98;;;211.02;;
40058;SDS011;25763;49.972;8.568;2024-02-04T04:03:46;215.43;;;204.75;;
40058;SDS011;25763;49.972;8.568;2024-02-04T04:06:12;223.32;;;212.27;;
40058;SDS011;25763;49.972;8.568;2024-02-04T04:08:37;221.68;;;210.75;;
40058;SDS011;25763;49.972;8.568;2024-02-04T04:11:03;204.38;;;194.18;;
40058;SDS011;25763;49.972;8.568;2024-02-04T04:13:29;209.57;;;199.20;;
40058;SDS011;25763;49.972;8.568;2024-02-04T04:15:54;208.10;;;197.82;;
40058;SDS011;25763;49.972;8.568;2024-02-04T04:18:20;205.40;;;195.25;;
40058;SDS011;25763;49.972;8.568;2024-02-04T04:20:45;209.57;;;199.25;;
40058;SDS011;25763;49.972;8.568;2024-02-04T04:23:11;205.77;;;195.57;;
40058;SDS011;25763;49.972;8.568;2024-02-04T04:25:37;193.00;;;183.45;;
40058;SDS011;25763;49.972;8.568;2024-02-04T04:28:02;197.85;;;187.98;;
40058;SDS011;25763;49.972;8.568;2024-02-04T04:30:28;202.10;;;192.10;;
40058;SDS011;25763;49.972;8.568;2024-02-04T04:32:53;212.90;;;202.38;;
40058;SDS011;25763;49.972;8.568;2024-02-04T04:35:18;216.55;;;205.88;;
40058;SDS011;25763;49.972;8.568;2024-02-04T04:37:44;211.00;;;200.55;;
40058;SDS011;25763;49.972;8.568;2024-02-04T04:40:09;209.30;;;198.95;;
40058;SDS011;25763;49.972;8.568;2024-02-04T04:42:35;207.88;;;197.63;;
40058;SDS011;25763;49.972;8.568;2024-02-04T04:45:00;203.45;;;193.40;;
40058;SDS011;25763;49.972;8.568;2024-02-04T04:47:25;193.50;;;183.93;;
40058;SDS011;25763;49.972;8.568;2024-02-04T04:49:51;191.23;;;181.75;;
40058;SDS011;25763;49.972;8.568;2024-02-04T04:52:16;192.10;;;182.57;;
40058;SDS011;25763;49.972;8.568;2024-02-04T04:54:42;190.55;;;181.13;;
40058;SDS011;25763;49.972;8.568;2024-02-04T04:57:07;193.90;;;184.32;;
40058;SDS011;25763;49.972;8.568;2024-02-04T04:59:33;201.25;;;191.32;;
40058;SDS011;25763;49.972;8.568;2024-02-04T05:01:58;199.05;;;189.20;;
40058;SDS011;25763;49.972;8.568;2024-02-04T05:04:23;200.88;;;190.73;;
40058;SDS011;25763;49.972;8.568;2024-02-04T05:06:50;198.95;;;189.10;;
40058;SDS011;25763;49.972;8.568;2024-02-04T05:09:16;209.65;;;199.27;;
40058;SDS011;25763;49.972;8.568;2024-02-04T05:11:41;205.77;;;195.63;;
40058;SDS011;25763;49.972;8.568;2024-02-04T05:14:07;207.38;;;197.10;;
40058;SDS011;25763;49.972;8.568;2024-02-04T05:16:32;208.88;;;198.55;;
40058;SDS011;25763;49.972;8.568;2024-02-04T05:18:57;205.13;;;194.93;;
40058;SDS011;25763;49.972;8.568;2024-02-04T05:21:23;204.43;;;194.32;;
40058;SDS011;25763;49.972;8.568;2024-02-04T05:23:48;199.00;;;189.23;;
40058;SDS011;25763;49.972;8.568;2024-02-04T05:26:14;200.02;;;190.13;;
40058;SDS011;25763;49.972;8.568;2024-02-04T05:28:42;203.65;;;193.63;;
40058;SDS011;25763;49.972;8.568;2024-02-04T05:31:07;200.13;;;190.23;;
40058;SDS011;25763;49.972;8.568;2024-02-04T05:33:33;186.13;;;176.88;;
40058;SDS011;25763;49.972;8.568;2024-02-04T05:35:58;186.27;;;177.02;;
40058;SDS011;25763;49.972;8.568;2024-02-04T05:38:23;189.77;;;180.38;;
40058;SDS011;25763;49.972;8.568;2024-02-04T05:40:49;191.50;;;182.02;;
40058;SDS011;25763;49.972;8.568;2024-02-04T05:43:14;189.10;;;179.73;;
40058;SDS011;25763;49.972;8.568;2024-02-04T05:45:41;195.98;;;186.30;;
40058;SDS011;25763;49.972;8.568;2024-02-04T05:48:07;185.00;;;175.85;;
40058;SDS011;25763;49.972;8.568;2024-02-04T05:50:33;180.30;;;171.35;;
40058;SDS011;25763;49.972;8.568;2024-02-04T05:52:58;186.88;;;177.65;;
40058;SDS011;25763;49.972;8.568;2024-02-04T05:55:24;184.23;;;175.07;;
40058;SDS011;25763;49.972;8.568;2024-02-04T05:57:49;180.77;;;171.77;;
40058;SDS011;25763;49.972;8.568;2024-02-04T06:00:14;179.75;;;170.82;;
40058;SDS011;25763;49.972;8.568;2024-02-04T06:02:40;169.05;;;160.63;;
40058;SDS011;25763;49.972;8.568;2024-02-04T06:05:08;172.27;;;163.68;;
40058;SDS011;25763;49.972;8.568;2024-02-04T06:07:34;182.32;;;173.32;;
40058;SDS011;25763;49.972;8.568;2024-02-04T06:09:59;172.80;;;164.20;;
40058;SDS011;25763;49.972;8.568;2024-02-04T06:12:26;171.48;;;162.98;;
40058;SDS011;25763;49.972;8.568;2024-02-04T06:14:51;161.68;;;153.57;;
40058;SDS011;25763;49.972;8.568;2024-02-04T06:17:17;160.40;;;152.35;;
40058;SDS011;25763;49.972;8.568;2024-02-04T06:19:42;171.98;;;163.40;;
40058;SDS011;25763;49.972;8.568;2024-02-04T06:22:07;158.82;;;150.90;;
40058;SDS011;25763;49.972;8.568;2024-02-04T06:24:33;156.13;;;148.25;;
40058;SDS011;25763;49.972;8.568;2024-02-04T06:26:58;162.73;;;154.65;;
40058;SDS011;25763;49.972;8.568;2024-02-04T06:29:23;151.43;;;143.82;;
40058;SDS011;25763;49.972;8.568;2024-02-04T06:31:49;161.35;;;153.30;;
40058;SDS011;25763;49.972;8.568;2024-02-04T06:34:14;160.93;;;152.85;;
40058;SDS011;25763;49.972;8.568;2024-02-04T06:36:43;162.90;;;154.80;;
40058;SDS011;25763;49.972;8.568;2024-02-04T06:39:09;152.93;;;145.27;;
40058;SDS011;25763;49.972;8.568;2024-02-04T06:41:35;155.48;;;147.68;;
40058;SDS011;25763;49.972;8.568;2024-02-04T06:44:00;158.10;;;150.18;;
40058;SDS011;25763;49.972;8.568;2024-02-04T06:46:28;150.85;;;143.30;;
40058;SDS011;25763;49.972;8.568;2024-02-04T06:48:53;149.07;;;141.65;;
40058;SDS011;25763;49.972;8.568;2024-02-04T06:51:19;147.15;;;139.80;;
40058;SDS011;25763;49.972;8.568;2024-02-04T06:53:45;147.25;;;139.88;;
40058;SDS011;25763;49.972;8.568;2024-02-04T06:56:10;147.52;;;140.15;;
40058;SDS011;25763;49.972;8.568;2024-02-04T06:58:39;145.07;;;137.82;;
40058;SDS011;25763;49.972;8.568;2024-02-04T07:01:04;143.88;;;136.73;;
40058;SDS011;25763;49.972;8.568;2024-02-04T07:03:30;136.10;;;129.27;;
40058;SDS011;25763;49.972;8.568;2024-02-04T07:05:56;137.23;;;130.35;;
40058;SDS011;25763;49.972;8.568;2024-02-04T07:08:22;141.65;;;134.55;;
40058;SDS011;25763;49.972;8.568;2024-02-04T07:10:47;145.50;;;138.23;;
40058;SDS011;25763;49.972;8.568;2024-02-04T07:13:13;139.88;;;132.93;;
40058;SDS011;25763;49.972;8.568;2024-02-04T07:15:38;136.05;;;129.25;;
40058;SDS011;25763;49.972;8.568;2024-02-04T07:18:04;136.40;;;129.57;;
40058;SDS011;25763;49.972;8.568;2024-02-04T07:20:29;139.65;;;132.65;;
40058;SDS011;25763;49.972;8.568;2024-02-04T07:22:55;142.43;;;135.32;;
40058;SDS011;25763;49.972;8.568;2024-02-04T07:25:20;133.32;;;126.63;;
40058;SDS011;25763;49.972;8.568;2024-02-04T07:27:46;142.75;;;135.65;;
40058;SDS011;25763;49.972;8.568;2024-02-04T07:30:11;141.63;;;134.55;;
40058;SDS011;25763;49.972;8.568;2024-02-04T07:32:37;135.77;;;128.98;;
40058;SDS011;25763;49.972;8.568;2024-02-04T07:35:02;143.45;;;136.30;;
40058;SDS011;25763;49.972;8.568;2024-02-04T07:37:28;140.40;;;133.40;;
40058;SDS011;25763;49.972;8.568;2024-02-04T07:39:53;133.10;;;126.45;;
40058;SDS011;25763;49.972;8.568;2024-02-04T07:42:19;134.15;;;127.40;;
40058;SDS011;25763;49.972;8.568;2024-02-04T07:44:44;133.27;;;126.57;;
40058;SDS011;25763;49.972;8.568;2024-02-04T07:47:09;132.25;;;125.63;;
40058;SDS011;25763;49.972;8.568;2024-02-04T07:49:35;133.18;;;126.53;;
40058;SDS011;25763;49.972;8.568;2024-02-04T07:52:00;133.43;;;126.75;;
40058;SDS011;25763;49.972;8.568;2024-02-04T07:54:25;134.88;;;128.10;;
40058;SDS011;25763;49.972;8.568;2024-02-04T07:56:51;129.50;;;123.03;;
40058;SDS011;25763;49.972;8.568;2024-02-04T07:59:16;129.38;;;122.90;;
40058;SDS011;25763;49.972;8.568;2024-02-04T08:01:41;139.70;;;132.68;;
40058;SDS011;25763;49.972;8.568;2024-02-04T08:04:07;135.25;;;128.48;;
40058;SDS011;25763;49.972;8.568;2024-02-04T08:06:35;136.77;;;129.93;;
40058;SDS011;25763;49.972;8.568;2024-02-04T08:09:02;134.25;;;127.53;;
40058;SDS011;25763;49.972;8.568;2024-02-04T08:11:28;132.98;;;126.32;;
40058;SDS011;25763;49.972;8.568;2024-02-04T08:13:53;134.35;;;127.63;;
40058;SDS011;25763;49.972;8.568;2024-02-04T08:16:18;133.05;;;126.40;;
40058;SDS011;25763;49.972;8.568;2024-02-04T08:18:45;136.35;;;129.52;;
40058;SDS011;25763;49.972;8.568;2024-02-04T08:21:11;136.77;;;129.95;;
40058;SDS011;25763;49.972;8.568;2024-02-04T08:23:36;129.68;;;123.10;;
40058;SDS011;25763;49.972;8.568;2024-02-04T08:26:01;137.25;;;130.40;;
40058;SDS011;25763;49.972;8.568;2024-02-04T08:28:27;130.15;;;123.65;;
40058;SDS011;25763;49.972;8.568;2024-02-04T08:30:53;134.98;;;128.23;;
40058;SDS011;25763;49.972;8.568;2024-02-04T08:33:18;127.25;;;120.88;;
40058;SDS011;25763;49.972;8.568;2024-02-04T08:35:44;129.00;;;122.57;;
40058;SDS011;25763;49.972;8.568;2024-02-04T08:38:09;136.07;;;129.27;;
40058;SDS011;25763;49.972;8.568;2024-02-04T08:40:34;137.93;;;131.00;;
40058;SDS011;25763;49.972;8.568;2024-02-04T08:43:00;130.02;;;123.50;;
40058;SDS011;25763;49.972;8.568;2024-02-04T08:45:25;136.73;;;129.88;;
40058;SDS011;25763;49.972;8.568;2024-02-04T08:47:50;137.00;;;130.13;;
40058;SDS011;25763;49.972;8.568;2024-02-04T08:50:16;133.23;;;126.55;;
40058;SDS011;25763;49.972;8.568;2024-02-04T08:52:41;140.77;;;133.70;;
40058;SDS011;25763;49.972;8.568;2024-02-04T08:55:07;132.20;;;125.65;;
40058;SDS011;25763;49.972;8.568;2024-02-04T08:57:33;145.05;;;137.80;;
40058;SDS011;25763;49.972;8.568;2024-02-04T08:59:59;141.13;;;134.07;;
40058;SDS011;25763;49.972;8.568;2024-02-04T09:02:24;133.90;;;127.20;;
40058;SDS011;25763;49.972;8.568;2024-02-04T09:04:50;132.60;;;125.95;;
40058;SDS011;25763;49.972;8.568;2024-02-04T09:07:15;122.95;;;116.82;;
40058;SDS011;25763;49.972;8.568;2024-02-04T09:09:40;108.80;;;103.40;;
40058;SDS011;25763;49.972;8.568;2024-02-04T09:12:07;99.60;;;94.63;;
40058;SDS011;25763;49.972;8.568;2024-02-04T09:14:33;86.65;;;82.35;;
40058;SDS011;25763;49.972;8.568;2024-02-04T09:16:58;76.55;;;72.75;;
40058;SDS011;25763;49.972;8.568;2024-02-04T09:19:23;66.78;;;63.40;;
40058;SDS011;25763;49.972;8.568;2024-02-04T09:21:49;63.80;;;60.60;;
40058;SDS011;25763;49.972;8.568;2024-02-04T09:24:15;63.05;;;59.85;;
40058;SDS011;25763;49.972;8.568;2024-02-04T09:26:40;57.75;;;54.85;;
40058;SDS011;25763;49.972;8.568;2024-02-04T09:29:05;58.92;;;55.92;;
40058;SDS011;25763;49.972;8.568;2024-02-04T09:31:31;54.83;;;52.05;;
40058;SDS011;25763;49.972;8.568;2024-02-04T09:33:56;50.00;;;47.45;;
40058;SDS011;25763;49.972;8.568;2024-02-04T09:36:22;41.80;;;39.70;;
40058;SDS011;25763;49.972;8.568;2024-02-04T09:38:48;41.20;;;39.10;;
40058;SDS011;25763;49.972;8.568;2024-02-04T09:41:13;39.30;;;37.30;;
40058;SDS011;25763;49.972;8.568;2024-02-04T09:43:38;36.97;;;35.08;;
40058;SDS011;25763;49.972;8.568;2024-02-04T09:46:05;32.15;;;30.45;;
40058;SDS011;25763;49.972;8.568;2024-02-04T09:48:31;32.88;;;31.17;;
40058;SDS011;25763;49.972;8.568;2024-02-04T09:50:57;33.28;;;31.58;;
40058;SDS011;25763;49.972;8.568;2024-02-04T09:53:26;31.20;;;29.60;;
40058;SDS011;25763;49.972;8.568;2024-02-04T09:56:00;31.33;;;29.73;;
40058;SDS011;25763;49.972;8.568;2024-02-04T09:58:27;30.02;;;28.48;;
40058;SDS011;25763;49.972;8.568;2024-02-04T10:00:53;30.88;;;29.27;;
40058;SDS011;25763;49.972;8.568;2024-02-04T10:03:18;31.77;;;30.13;;
40058;SDS011;25763;49.972;8.568;2024-02-04T10:05:44;31.17;;;29.58;;
40058;SDS011;25763;49.972;8.568;2024-02-04T10:08:10;33.85;;;32.10;;
40058;SDS011;25763;49.972;8.568;2024-02-04T10:10:35;34.03;;;32.30;;
40058;SDS011;25763;49.972;8.568;2024-02-04T10:13:05;33.42;;;31.73;;
40058;SDS011;25763;49.972;8.568;2024-02-04T10:15:31;33.95;;;32.22;;
40058;SDS011;25763;49.972;8.568;2024-02-04T10:17:57;35.08;;;33.28;;
40058;SDS011;25763;49.972;8.568;2024-02-04T10:20:22;36.28;;;34.42;;
40058;SDS011;25763;49.972;8.568;2024-02-04T10:22:48;37.13;;;35.22;;
40058;SDS011;25763;49.972;8.568;2024-02-04T10:25:14;36.55;;;34.65;;
40058;SDS011;25763;49.972;8.568;2024-02-04T10:27:41;36.47;;;34.58;;
40058;SDS011;25763;49.972;8.568;2024-02-04T10:30:07;38.03;;;36.08;;
40058;SDS011;25763;49.972;8.568;2024-02-04T10:32:33;37.33;;;35.40;;
40058;SDS011;25763;49.972;8.568;2024-02-04T10:34:59;35.55;;;33.65;;
40058;SDS011;25763;49.972;8.568;2024-02-04T10:37:26;36.72;;;34.83;;
40058;SDS011;25763;49.972;8.568;2024-02-04T10:39:51;39.72;;;37.72;;
40058;SDS011;25763;49.972;8.568;2024-02-04T10:42:17;37.28;;;35.38;;
40058;SDS011;25763;49.972;8.568;2024-02-04T10:44:45;38.85;;;36.85;;
40058;SDS011;25763;49.972;8.568;2024-02-04T10:47:15;37.88;;;35.95;;
40058;SDS011;25763;49.972;8.568;2024-02-04T10:49:43;38.88;;;36.88;;
40058;SDS011;25763;49.972;8.568;2024-02-04T10:52:20;38.13;;;36.20;;
40058;SDS011;25763;49.972;8.568;2024-02-04T10:54:48;40.75;;;38.67;;
40058;SDS011;25763;49.972;8.568;2024-02-04T10:57:14;40.08;;;38.05;;
40058;SDS011;25763;49.972;8.568;2024-02-04T10:59:46;44.38;;;42.10;;
40058;SDS011;25763;49.972;8.568;2024-02-04T11:02:13;40.47;;;38.40;;
40058;SDS011;25763;49.972;8.568;2024-02-04T11:04:40;43.67;;;41.47;;
40058;SDS011;25763;49.972;8.568;2024-02-04T11:07:07;43.95;;;41.75;;
40058;SDS011;25763;49.972;8.568;2024-02-04T11:09:34;43.53;;;41.33;;
40058;SDS011;25763;49.972;8.568;2024-02-04T11:12:01;43.88;;;41.67;;
40058;SDS011;25763;49.972;8.568;2024-02-04T11:14:31;42.75;;;40.55;;
40058;SDS011;25763;49.972;8.568;2024-02-04T11:19:59;45.50;;;43.20;;
40058;SDS011;25763;49.972;8.568;2024-02-04T11:25:40;41.70;;;39.58;;
40058;SDS011;25763;49.972;8.568;2024-02-04T11:28:09;40.95;;;38.85;;
40058;SDS011;25763;49.972;8.568;2024-02-04T11:30:36;43.55;;;41.35;;
40058;SDS011;25763;49.972;8.568;2024-02-04T11:33:04;45.97;;;43.67;;
40058;SDS011;25763;49.972;8.568;2024-02-04T11:35:31;47.40;;;45.00;;
40058;SDS011;25763;49.972;8.568;2024-02-04T11:37:57;45.03;;;42.72;;
40058;SDS011;25763;49.972;8.568;2024-02-04T11:40:22;44.75;;;42.45;;
40058;SDS011;25763;49.972;8.568;2024-02-04T11:42:50;42.20;;;40.05;;
40058;SDS011;25763;49.972;8.568;2024-02-04T11:45:16;45.60;;;43.20;;
40058;SDS011;25763;49.972;8.568;2024-02-04T11:47:41;45.05;;;42.75;;
40058;SDS011;25763;49.972;8.568;2024-02-04T11:50:07;41.80;;;39.70;;
40058;SDS011;25763;49.972;8.568;2024-02-04T11:52:34;41.88;;;39.78;;
40058;SDS011;25763;49.972;8.568;2024-02-04T11:55:00;43.17;;;40.97;;
40058;SDS011;25763;49.972;8.568;2024-02-04T11:57:25;42.17;;;40.03;;
40058;SDS011;25763;49.972;8.568;2024-02-04T11:59:52;36.67;;;34.80;;
40058;SDS011;25763;49.972;8.568;2024-02-04T12:02:22;41.28;;;39.17;;
40058;SDS011;25763;49.972;8.568;2024-02-04T12:04:48;41.47;;;39.38;;
40058;SDS011;25763;49.972;8.568;2024-02-04T12:07:13;40.70;;;38.60;;
40058;SDS011;25763;49.972;8.568;2024-02-04T12:09:40;41.40;;;39.30;;
40058;SDS011;25763;49.972;8.568;2024-02-04T12:12:06;40.15;;;38.15;;
40058;SDS011;25763;49.972;8.568;2024-02-04T12:14:32;40.90;;;38.80;;
40058;SDS011;25763;49.972;8.568;2024-02-04T12:16:59;41.78;;;39.67;;
40058;SDS011;25763;49.972;8.568;2024-02-04T12:19:33;42.75;;;40.55;;
40058;SDS011;25763;49.972;8.568;2024-02-04T12:21:58;42.42;;;40.22;;
40058;SDS011;25763;49.972;8.568;2024-02-04T12:24:24;42.03;;;39.90;;
40058;SDS011;25763;49.972;8.568;2024-02-04T12:26:49;41.33;;;39.20;;
40058;SDS011;25763;49.972;8.568;2024-02-04T12:29:15;43.53;;;41.33;;
40058;SDS011;25763;49.972;8.568;2024-02-04T12:31:40;41.78;;;39.65;;
40058;SDS011;25763;49.972;8.568;2024-02-04T12:34:07;43.72;;;41.50;;
40058;SDS011;25763;49.972;8.568;2024-02-04T12:36:33;42.95;;;40.75;;
40058;SDS011;25763;49.972;8.568;2024-02-04T12:39:02;44.42;;;42.17;;
40058;SDS011;25763;49.972;8.568;2024-02-04T12:41:28;42.55;;;40.38;;
40058;SDS011;25763;49.972;8.568;2024-02-04T12:43:57;42.85;;;40.67;;
40058;SDS011;25763;49.972;8.568;2024-02-04T12:46:25;43.05;;;40.88;;
40058;SDS011;25763;49.972;8.568;2024-02-04T12:48:52;44.00;;;41.78;;
40058;SDS011;25763;49.972;8.568;2024-02-04T12:51:26;45.00;;;42.75;;
40058;SDS011;25763;49.972;8.568;2024-02-04T12:54:05;43.75;;;41.53;;
40058;SDS011;25763;49.972;8.568;2024-02-04T12:59:11;45.50;;;43.20;;
40058;SDS011;25763;49.972;8.568;2024-02-04T13:01:39;41.15;;;39.03;;
40058;SDS011;25763;49.972;8.568;2024-02-04T13:04:04;42.30;;;40.15;;
40058;SDS011;25763;49.972;8.568;2024-02-04T13:06:30;46.03;;;43.67;;
40058;SDS011;25763;49.972;8.568;2024-02-04T13:08:56;42.25;;;40.10;;
40058;SDS011;25763;49.972;8.568;2024-02-04T13:11:25;43.95;;;41.72;;
40058;SDS011;25763;49.972;8.568;2024-02-04T13:13:51;44.75;;;42.50;;
40058;SDS011;25763;49.972;8.568;2024-02-04T13:16:16;42.97;;;40.80;;
40058;SDS011;25763;49.972;8.568;2024-02-04T13:18:44;41.53;;;39.42;;
40058;SDS011;25763;49.972;8.568;2024-02-04T13:21:16;42.42;;;40.28;;
40058;SDS011;25763;49.972;8.568;2024-02-04T13:23:45;42.67;;;40.50;;
40058;SDS011;25763;49.972;8.568;2024-02-04T13:26:10;44.13;;;41.90;;
40058;SDS011;25763;49.972;8.568;2024-02-04T13:28:35;41.17;;;39.10;;
40058;SDS011;25763;49.972;8.568;2024-02-04T13:31:02;44.58;;;42.30;;
40058;SDS011;25763;49.972;8.568;2024-02-04T13:33:27;45.65;;;43.35;;
40058;SDS011;25763;49.972;8.568;2024-02-04T13:35:52;47.00;;;44.60;;
40058;SDS011;25763;49.972;8.568;2024-02-04T13:38:18;49.60;;;47.05;;
40058;SDS011;25763;49.972;8.568;2024-02-04T13:40:43;46.75;;;44.38;;
40058;SDS011;25763;49.972;8.568;2024-02-04T13:43:09;47.20;;;44.85;;
40058;SDS011;25763;49.972;8.568;2024-02-04T13:45:34;45.95;;;43.63;;
40058;SDS011;25763;49.972;8.568;2024-02-04T13:47:59;44.60;;;42.33;;
40058;SDS011;25763;49.972;8.568;2024-02-04T13:50:24;41.67;;;39.55;;
40058;SDS011;25763;49.972;8.568;2024-02-04T13:52:50;45.90;;;43.58;;
40058;SDS011;25763;49.972;8.568;2024-02-04T13:55:16;42.92;;;40.75;;
40058;SDS011;25763;49.972;8.568;2024-02-04T13:57:41;45.67;;;43.38;;
40058;SDS011;25763;49.972;8.568;2024-02-04T14:00:07;43.05;;;40.85;;
40058;SDS011;25763;49.972;8.568;2024-02-04T14:02:33;46.15;;;43.80;;
40058;SDS011;25763;49.972;8.568;2024-02-04T14:04:59;43.58;;;41.35;;
40058;SDS011;25763;49.972;8.568;2024-02-04T14:07:25;44.00;;;41.78;;
40058;SDS011;25763;49.972;8.568;2024-02-04T14:09:50;45.65;;;43.33;;
40058;SDS011;25763;49.972;8.568;2024-02-04T14:12:16;47.25;;;44.85;;
40058;SDS011;25763;49.972;8.568;2024-02-04T14:14:41;46.97;;;44.60;;